Ana Sayfa
METAR-TAF:

METAR-TAF

Havaalanları :

Saint-Pierre, Réunion

Enlem: 21-20S, Boylam: 055-29E, yükseklik: 52 m

Güncel hava durumu gözlemi

Rapor saat 06:30 UTC de 28 dakika önce yapıldı.
Rüzgar batıdan 9 kt
Sıcaklık 26°C
Nem 58%
Basınç 1023 hPa
Görüş mesafesi 10 km veya daha fazla
4500 ft yükseklikte parçalı çok bulutlu

METAR: FMEP 250630Z AUTO 26009KT 9999 BKN045 26/17 Q1023 BECMG 14017G27KT

Saat: 10:58 (06:58 UTC)

Tahmin

Rapor saat 05:00 UTC de 1 saat ve 58 dakika önce yapıldı.
Ayın 25'si saat 06 UTC'den ayın 25'si saat 15 UTC'ye kadar geçerli Tahmin
Rüzgar batıdan 7 kt
Görüş mesafesi 10 km veya daha fazla
3000 ft yükseklikte az bulutlu
4500 ft yükseklikte parçalı bulutlu
Dönüşüyor
ayın 25'si saat 07 UTC'den ayın 25'si saat 09 UTC'ye kadar
Rüzgar güneydoğudan 17 kt ve 27 kt'a kadar ani rüzgarlar

TAF: FMEP 250500Z 2506/2515 28007KT 9999 FEW030 SCT045 BECMG 2507/2509 14017G27KT

4.000'den fazla havaalanı için hava durumu gözlemleri ve tahminleri (METAR ve TAF raporları).

Kullanılabilir istasyonlar harita üzerinde sarı ve kırmızı noktalarla gösterilir.

İstasyonun adını görmek için fareyi noktanın üzerinde gezdirin.

Sonrasında hava gözlem ve tahminlerini görmek için tıklayın.

Haritayı değiştirmek için: yaklaştırmak için siyah artı işaretli yeşil düğmeye ve uzaklaştırmak için de eksi işaretli düğmeye hızla tıklayın; bitişik haritalar için yeşil okları kullanın.


METAR-TAF: